Latest Coastal Weather Observations for Eucla

IDS60701

Issued at 6:25 am CST Saturday 19 April 2014 (issued every 10 minutes, with the page automatically refreshed every 10 minutes)

About coastal observations | Map of coastal stations | Coastal observations for SA | Marine services | Other Formats
Station Details ID: 011003 Name: EUCLA Lat: -31.68 Lon: 128.90 Height: 93.1 m
Data from the previous 72 hours. | See also: Recent months at Eucla
Date/Time
CST
Temp

°C
Wind Pressure Rain
since 9am
mm
Weather Cloud Vis
km
Sea
Height
m
Swell
Dir
 
Speed
knots
Gust
knots
hPa Trend Height
m
Period
s
Dir
19/06:00am 15.1 NE 6 8 1020.9 - 0.0 - - - - - - -
19/05:30am 15.5 NNE 6 8 1020.7 - 0.0 - - - - - - -
19/05:00am 15.8 NE 6 8 1020.9 - 0.0 - - - - - - -
19/04:30am 15.7 NE 6 7 1020.8 - 0.0 - - - - - - -
19/04:00am 15.6 NE 6 7 1020.8 - 0.0 - - - - - - -
19/03:30am 15.8 NE 6 8 1020.6 - 0.0 - - - - - - -
19/03:00am 16.4 ENE 6 9 1021.0 - 0.0 - - - - - - -
19/02:30am 16.2 ENE 5 7 1020.9 - 0.0 - - - - - - -
19/02:00am 16.7 ENE 5 7 1021.4 - 0.0 - - - - - - -
19/01:30am 16.8 ENE 5 8 1021.2 - 0.0 - - - - - - -
19/01:00am 17.0 E 5 9 1021.7 - 0.0 - - - - - - -
19/12:30am 17.3 E 5 7 1021.6 - 0.0 - - - - - - -
19/12:00am 17.9 E 7 13 1022.0 - 0.0 - - - - - - -
 
Date/Time
CST
Temp

°C
Wind Pressure Rain
since 9am
mm
Weather Cloud Vis
km
Sea
Height
m
Swell
Dir
 
Speed
knots
Gust
knots
hPa Trend Height
m
Period
s
Dir
18/11:30pm 17.8 E 7 9 1022.1 - 0.0 - - - - - - -
18/11:00pm 17.9 ESE 6 10 1022.5 - 0.0 - - - - - - -
18/10:30pm 18.0 ESE 7 11 1022.4 - 0.0 - - - - - - -
18/10:00pm 18.3 ESE 7 9 1022.7 - 0.0 - - - - - - -
18/09:30pm 18.2 ESE 7 10 1022.5 - 0.0 - - - - - - -
18/09:00pm 18.3 ESE 7 9 1022.7 - 0.0 - - - - - - -
18/08:30pm 18.3 SE 7 9 1022.4 - 0.0 - - - - - - -
18/08:00pm 18.3 SE 7 10 1022.5 - 0.0 - - - - - - -
18/07:30pm 18.5 SE 7 10 1022.3 - 0.0 - - - - - - -
18/07:00pm 18.8 SE 7 11 1022.2 - 0.0 - - - - - - -
18/06:30pm 19.0 SE 7 11 1022.0 - 0.0 - - - - - - -
18/06:00pm 19.2 SE 7 11 1022.0 - 0.0 - - - - - - -
18/05:30pm 19.6 SE 7 10 1021.8 - 0.0 - - - - - - -
18/05:00pm 20.0 SE 8 12 1022.0 - 0.0 - - - - - - -
18/04:30pm 20.6 SSE 9 14 1021.8 - 0.0 Fine Partly cloudy 25 - - - -
18/04:00pm 20.6 SE 9 13 1022.0 - 0.0 - - - - - - -
18/03:30pm 21.4 SSE 9 13 1021.9 - 0.0 - - - - - - -
18/03:00pm 21.9 SSE 8 13 1022.1 - 0.0 - - - - - - -
18/02:30pm 22.0 SSE 9 13 1021.8 - 0.0 - - - - - - -
18/02:00pm 21.7 SSE 9 13 1022.3 - 0.0 - - - - - - -
18/01:30pm 21.8 SSE 8 12 1022.4 - 0.0 - - - - - - -
18/01:00pm 21.3 SSE 9 13 1023.0 - 0.0 - - - - - - -
18/12:30pm 21.3 SE 8 13 1023.2 - 0.0 - - - - - - -
18/12:00pm 21.1 SE 8 15 1023.7 - 0.0 - - - - - - -
18/11:30am 21.1 SE 8 12 1023.7 - 0.0 - - - - - - -
18/11:00am 20.7 SE 8 13 1023.9 - 0.0 - - - - - - -
18/10:30am 20.7 SE 7 10 1023.8 - 0.0 Fine Partly cloudy 25 - - - -
18/10:00am 20.3 SSE 8 11 1024.0 - 0.0 - - - - - - -
18/09:30am 19.9 SE 8 11 1023.8 - 0.0 - - - - - - -
18/09:00am 19.6 SE 8 11 1023.7 - 0.0 - - - - - - -
18/08:30am 20.2 SE 7 12 1023.2 - 0.0 - - - - - - -
18/08:00am 18.7 SE 7 10 1023.2 - 0.0 - - - - - - -
18/07:30am 18.4 SE 8 13 1022.7 - 0.0 - - - - - - -
18/07:00am 18.4 SE 8 12 1022.6 - 0.0 - - - - - - -
18/06:30am 18.6 SE 9 15 1022.2 - 0.0 - - - - - - -
18/06:00am 18.6 SSE 10 17 1022.3 - 0.0 - - - - - - -
18/05:30am 18.7 SSE 9 15 1021.9 - 0.0 - - - - - - -
18/05:00am 18.4 SSE 10 14 1021.9 - 0.0 - - - - - - -
18/04:30am 18.6 SSE 10 16 1021.4 - 0.0 - - - - - - -
18/04:00am 18.6 SSE 9 14 1021.4 - 0.0 - - - - - - -
18/03:30am 18.9 S 8 13 1021.2 - 0.0 - - - - - - -
18/03:00am 18.9 S 9 16 1021.3 - 0.0 - - - - - - -
18/02:30am 18.5 S 8 12 1021.1 - 0.0 - - - - - - -
18/02:00am 17.8 SSW 7 8 1021.3 - 0.0 - - - - - - -
18/01:30am 19.0 SE 6 8 1020.8 - 0.0 - - - - - - -
18/01:00am 18.3 SW 7 9 1021.0 - 0.0 - - - - - - -
18/12:30am 18.3 SW 7 9 1020.4 - 0.0 - - - - - - -
18/12:00am 17.9 NE 3 5 1020.2 - 0.0 - - - - - - -
 
Date/Time
CST
Temp

°C
Wind Pressure Rain
since 9am
mm
Weather Cloud Vis
km
Sea
Height
m
Swell
Dir
 
Speed
knots
Gust
knots
hPa Trend Height
m
Period
s
Dir
17/11:30pm 18.0 N 8 11 1019.9 - 0.0 - - - - - - -
17/11:00pm 18.6 N 9 11 1019.7 - 0.0 - - - - - - -
17/10:30pm 18.8 N 8 10 1019.5 - 0.0 - - - - - - -
17/10:00pm 19.5 N 8 9 1019.8 - 0.0 - - - - - - -
17/09:30pm 20.1 NNE 7 10 1019.3 - 0.0 - - - - - - -
17/09:00pm 20.6 NNE 7 10 1019.5 - 0.0 - - - - - - -
17/08:30pm 21.3 NNE 7 9 1019.2 - 0.0 - - - - - - -
17/08:00pm 21.8 NE 7 9 1019.2 - 0.0 - - - - - - -
17/07:30pm 22.2 NE 7 10 1018.7 - 0.0 - - - - - - -
17/07:00pm 22.3 NE 7 9 1018.7 - 0.0 - - - - - - -
17/06:30pm 22.9 ENE 6 7 1018.4 - 0.0 - - - - - - -
17/06:00pm 24.2 E 5 7 1018.5 - 0.0 - - - - - - -
17/05:30pm 25.0 E 6 8 1018.2 - 0.0 - - - - - - -
17/05:00pm 25.0 SE 6 8 1018.4 - 0.0 - - - - - - -
17/04:30pm 24.8 ESE 7 8 1018.0 - 0.0 Fine Partly cloudy 40 - - - -
17/04:00pm 24.9 SE 8 10 1018.4 - 0.0 - - - - - - -
17/03:30pm 25.2 SE 7 9 1018.3 - 0.0 - - - - - - -
17/03:00pm 25.4 SE 7 10 1018.5 - 0.0 - - - - - - -
17/02:30pm 25.8 SE 7 9 1018.6 - 0.0 - - - - - - -
17/02:00pm 29.2 NW 8 13 1018.9 - 0.0 - - - - - - -
17/01:30pm 29.6 NNW 8 11 1019.2 - 0.0 - - - - - - -
17/01:00pm 28.3 NW 10 16 1020.0 - 0.0 - - - - - - -
17/12:30pm 28.2 NNW 9 14 1020.2 - 0.0 - - - - - - -
17/12:00pm 27.1 NNW 10 15 1021.0 - 0.0 - - - - - - -
17/11:30am 26.4 NNW 10 14 1020.9 - 0.0 - - - - - - -
17/11:00am 24.9 N 11 17 1021.0 - 0.0 - - - - - - -
17/10:30am 23.3 N 9 15 1021.0 - 0.0 Fine Mostly clear 40 - - - -
17/10:00am 21.9 N 10 15 1021.2 - 0.0 - - - - - - -
17/09:30am 20.5 NNE 8 11 1020.9 - 0.0 - - - - - - -
17/09:00am 18.7 NNE 8 10 1021.2 - 0.0 - - - - - - -
17/08:30am 16.9 NNE 7 9 1020.8 - 0.0 - - - - - - -
17/08:00am 15.4 N 5 7 1020.9 - 0.0 - - - - - - -
17/07:30am 14.8 N 5 6 1020.6 - 0.0 - - - - - - -
17/07:00am 14.8 N 6 7 1020.5 - 0.0 - - - - - - -
17/06:30am 15.2 NNE 6 7 1020.2 - 0.0 - - - - - - -
17/06:00am 15.8 NNE 6 7 1020.5 - 0.0 - - - - - - -
17/05:30am 15.7 N 5 6 1020.2 - 0.0 - - - - - - -
17/05:00am 15.9 NNE 6 7 1020.4 - 0.0 - - - - - - -
17/04:30am 16.3 NNE 6 8 1019.9 - 0.0 - - - - - - -
17/04:00am 17.1 E 3 4 1020.4 - 0.0 - - - - - - -
17/03:30am 17.4 E 5 6 1020.1 - 0.0 - - - - - - -
17/03:00am 17.3 E 4 5 1020.5 - 0.0 - - - - - - -
17/02:30am 17.0 E 5 6 1020.4 - 0.0 - - - - - - -
17/02:00am 17.1 ESE 5 6 1020.7 - 0.0 - - - - - - -
17/01:30am 17.5 ESE 5 8 1020.6 - 0.0 - - - - - - -
17/01:00am 17.3 SE 5 7 1020.8 - 0.0 - - - - - - -
17/12:30am 17.4 SE 5 6 1020.7 - 0.0 - - - - - - -
17/12:00am 17.8 SSE 6 9 1021.1 - 0.0 - - - - - - -
 
Date/Time
CST
Temp

°C
Wind Pressure Rain
since 9am
mm
Weather Cloud Vis
km
Sea
Height
m
Swell
Dir
 
Speed
knots
Gust
knots
hPa Trend Height
m
Period
s
Dir
16/11:30pm 18.1 SSE 6 9 1021.2 - 0.0 - - - - - - -
16/11:00pm 18.3 SSE 7 10 1021.4 - 0.0 - - - - - - -
16/10:30pm 18.4 SSE 7 10 1021.3 - 0.0 - - - - - - -
16/10:00pm 18.3 S 7 10 1021.4 - 0.0 - - - - - - -
16/09:30pm 18.3 S 7 9 1021.1 - 0.0 - - - - - - -
16/09:00pm 18.5 S 7 10 1021.1 - 0.0 - - - - - - -
16/08:30pm 18.7 S 8 11 1020.8 - 0.0 - - - - - - -
16/08:00pm 18.9 S 8 11 1020.9 - 0.0 - - - - - - -
16/07:30pm 19.1 S 7 10 1020.4 - 0.0 - - - - - - -
16/07:00pm 19.2 S 9 13 1020.4 - 0.0 - - - - - - -
16/06:30pm 19.3 SSW 8 11 1019.8 - 0.0 - - - - - - -
16/06:00pm 19.8 SSW 9 14 1020.0 - 0.0 - - - - - - -
16/05:30pm 20.7 SSW 10 15 1019.5 - 0.0 - - - - - - -
16/05:00pm 21.3 SSW 10 16 1019.7 - 0.0 - - - - - - -
16/04:30pm 22.2 SSW 9 14 1019.3 - 0.0 - - - - - - -
16/04:00pm 22.5 SSW 11 15 1019.7 - 0.0 - - - - - - -
16/03:30pm 22.9 SSW 11 15 1019.4 - 0.0 - - - - - - -
16/03:00pm 23.0 SSW 10 14 1019.7 - 0.0 - - - - - - -
16/02:30pm 23.5 S 10 15 1019.5 - 0.0 - - - - - - -
16/02:00pm 24.2 S 9 14 1019.8 - 0.0 - - - - - - -
16/01:30pm 27.6 W 7 10 1019.6 - 0.0 - - - - - - -
16/01:00pm 26.8 WNW 7 11 1020.4 - 0.0 - - - - - - -
16/12:30pm 26.5 WNW 9 16 1020.6 - 0.0 - - - - - - -
16/12:00pm 25.4 NW 9 15 1020.9 - 0.0 - - - - - - -
16/11:30am 24.3 NW 10 16 1020.9 - 0.0 - - - - - - -
16/11:00am 23.4 NNW 10 15 1021.3 - 0.0 - - - - - - -
16/10:30am 21.9 NNW 11 14 1021.3 - 0.0 - - - - - - -
16/10:00am 20.4 N 9 12 1021.5 - 0.0 - - - - - - -
16/09:30am 18.4 N 9 14 1021.3 - 0.0 - - - - - - -
16/09:00am 16.3 N 8 11 1021.4 - 0.0 - - - - - - -
16/08:30am 14.0 N 9 12 1021.1 - 0.0 - - - - - - -
16/08:00am 12.3 N 8 12 1021.1 - 0.0 - - - - - - -

Other Formats:

Comma delimited format used in spreadsheet applications
http://www.bom.gov.au/fwo/IDS60701/IDS60701.94647.axf

JavaScript Object Notation format (JSON) in row-major order
http://www.bom.gov.au/fwo/IDS60701/IDS60701.94647.json